sensor_id;sensor_type;location;lat;lon;timestamp;pressure;altitude;pressure_sealevel;temperature;humidity
20860;BME280;10590;48.154;11.514;2023-04-02T00:00:21;94919.09;;;7.15;69.21
20860;BME280;10590;48.154;11.514;2023-04-02T00:05:44;94917.53;;;7.14;69.06
20860;BME280;10590;48.154;11.514;2023-04-02T00:11:26;94920.81;;;7.20;68.83
20860;BME280;10590;48.154;11.514;2023-04-02T00:16:53;94924.69;;;7.14;69.39
20860;BME280;10590;48.154;11.514;2023-04-02T00:22:18;94925.63;;;7.09;69.54
20860;BME280;10590;48.154;11.514;2023-04-02T00:27:40;94927.66;;;7.03;69.53
20860;BME280;10590;48.154;11.514;2023-04-02T00:33:12;94933.25;;;7.02;69.62
20860;BME280;10590;48.154;11.514;2023-04-02T00:38:36;94929.50;;;6.94;69.71
20860;BME280;10590;48.154;11.514;2023-04-02T00:44:03;94936.53;;;6.99;69.52
20860;BME280;10590;48.154;11.514;2023-04-02T00:49:31;94943.72;;;6.98;69.23
20860;BME280;10590;48.154;11.514;2023-04-02T00:54:59;94938.03;;;6.91;70.07
20860;BME280;10590;48.154;11.514;2023-04-02T01:00:28;94940.69;;;6.91;69.56
20860;BME280;10590;48.154;11.514;2023-04-02T01:05:57;94949.03;;;7.07;69.69
20860;BME280;10590;48.154;11.514;2023-04-02T01:11:31;94947.94;;;6.99;69.51
20860;BME280;10590;48.154;11.514;2023-04-02T01:16:59;94938.53;;;6.93;69.62
20860;BME280;10590;48.154;11.514;2023-04-02T01:22:27;94946.19;;;6.95;69.55
20860;BME280;10590;48.154;11.514;2023-04-02T01:27:58;94951.19;;;6.96;69.96
20860;BME280;10590;48.154;11.514;2023-04-02T01:33:28;94947.75;;;6.96;69.95
20860;BME280;10590;48.154;11.514;2023-04-02T01:38:57;94952.28;;;6.95;69.97
20860;BME280;10590;48.154;11.514;2023-04-02T01:44:25;94963.47;;;6.92;70.03
20860;BME280;10590;48.154;11.514;2023-04-02T01:49:52;94962.09;;;6.95;70.04
20860;BME280;10590;48.154;11.514;2023-04-02T01:55:19;94964.00;;;7.03;70.08
20860;BME280;10590;48.154;11.514;2023-04-02T02:00:48;94972.56;;;7.00;69.68
20860;BME280;10590;48.154;11.514;2023-04-02T02:06:14;94980.16;;;6.93;69.66
20860;BME280;10590;48.154;11.514;2023-04-02T02:11:36;94974.09;;;6.92;70.28
20860;BME280;10590;48.154;11.514;2023-04-02T02:17:01;94988.53;;;7.09;70.23
20860;BME280;10590;48.154;11.514;2023-04-02T02:22:27;94992.66;;;6.92;70.40
20860;BME280;10590;48.154;11.514;2023-04-02T02:27:57;95003.47;;;6.96;70.16
20860;BME280;10590;48.154;11.514;2023-04-02T02:33:22;95000.59;;;6.92;70.31
20860;BME280;10590;48.154;11.514;2023-04-02T02:38:53;95009.06;;;6.94;69.98
20860;BME280;10590;48.154;11.514;2023-04-02T02:44:18;95007.13;;;6.86;70.72
20860;BME280;10590;48.154;11.514;2023-04-02T02:49:43;95010.41;;;6.83;70.41
20860;BME280;10590;48.154;11.514;2023-04-02T02:55:10;95019.31;;;6.87;70.05
20860;BME280;10590;48.154;11.514;2023-04-02T03:00:34;95025.34;;;6.79;70.68
20860;BME280;10590;48.154;11.514;2023-04-02T03:05:59;95021.00;;;6.83;70.55
20860;BME280;10590;48.154;11.514;2023-04-02T03:11:30;95028.78;;;6.80;70.47
20860;BME280;10590;48.154;11.514;2023-04-02T03:16:57;95024.25;;;6.80;69.98
20860;BME280;10590;48.154;11.514;2023-04-02T03:22:26;95027.06;;;6.75;70.15
20860;BME280;10590;48.154;11.514;2023-04-02T03:27:56;95044.81;;;6.75;70.63
20860;BME280;10590;48.154;11.514;2023-04-02T03:33:22;95030.66;;;6.79;70.25
20860;BME280;10590;48.154;11.514;2023-04-02T03:38:47;95045.97;;;6.82;70.32
20860;BME280;10590;48.154;11.514;2023-04-02T03:44:19;95059.66;;;6.76;70.44
20860;BME280;10590;48.154;11.514;2023-04-02T03:49:46;95061.03;;;6.73;70.59
20860;BME280;10590;48.154;11.514;2023-04-02T03:55:11;95056.34;;;6.70;70.83
20860;BME280;10590;48.154;11.514;2023-04-02T04:00:38;95060.09;;;6.69;70.90
20860;BME280;10590;48.154;11.514;2023-04-02T04:06:06;95066.34;;;6.73;70.50
20860;BME280;10590;48.154;11.514;2023-04-02T04:11:31;95075.81;;;6.65;70.49
20860;BME280;10590;48.154;11.514;2023-04-02T04:17:00;95071.91;;;6.63;70.85
20860;BME280;10590;48.154;11.514;2023-04-02T04:22:25;95083.72;;;6.57;71.01
20860;BME280;10590;48.154;11.514;2023-04-02T04:27:57;95090.59;;;6.58;70.78
20860;BME280;10590;48.154;11.514;2023-04-02T04:33:28;95088.06;;;6.53;71.21
20860;BME280;10590;48.154;11.514;2023-04-02T04:39:04;95106.00;;;6.56;71.18
20860;BME280;10590;48.154;11.514;2023-04-02T04:44:37;95112.22;;;6.51;71.26
20860;BME280;10590;48.154;11.514;2023-04-02T04:50:05;95113.59;;;6.49;71.35
20860;BME280;10590;48.154;11.514;2023-04-02T04:55:35;95122.44;;;6.44;71.84
20860;BME280;10590;48.154;11.514;2023-04-02T05:01:01;95126.00;;;6.39;71.67
20860;BME280;10590;48.154;11.514;2023-04-02T05:06:34;95133.84;;;6.45;71.20
20860;BME280;10590;48.154;11.514;2023-04-02T05:12:04;95137.31;;;6.54;70.93
20860;BME280;10590;48.154;11.514;2023-04-02T05:17:30;95156.41;;;6.42;71.29
20860;BME280;10590;48.154;11.514;2023-04-02T05:23:02;95161.22;;;6.40;71.78
20860;BME280;10590;48.154;11.514;2023-04-02T05:28:31;95166.72;;;6.44;71.30
20860;BME280;10590;48.154;11.514;2023-04-02T05:33:56;95166.13;;;6.47;71.49
20860;BME280;10590;48.154;11.514;2023-04-02T05:39:21;95174.91;;;6.56;71.58
20860;BME280;10590;48.154;11.514;2023-04-02T05:44:50;95184.66;;;6.47;71.61
20860;BME280;10590;48.154;11.514;2023-04-02T05:50:26;95172.09;;;6.52;71.21
20860;BME280;10590;48.154;11.514;2023-04-02T05:55:55;95192.31;;;6.48;71.00
20860;BME280;10590;48.154;11.514;2023-04-02T06:01:31;95194.31;;;6.43;71.29
20860;BME280;10590;48.154;11.514;2023-04-02T06:06:58;95204.31;;;6.46;71.89
20860;BME280;10590;48.154;11.514;2023-04-02T06:12:27;95199.19;;;6.49;71.26
20860;BME280;10590;48.154;11.514;2023-04-02T06:17:57;95207.22;;;6.58;70.71
20860;BME280;10590;48.154;11.514;2023-04-02T06:23:21;95206.78;;;6.64;70.81
20860;BME280;10590;48.154;11.514;2023-04-02T06:28:47;95215.72;;;6.68;70.94
20860;BME280;10590;48.154;11.514;2023-04-02T06:34:14;95212.41;;;6.63;71.11
20860;BME280;10590;48.154;11.514;2023-04-02T06:39:36;95224.09;;;6.84;70.20
20860;BME280;10590;48.154;11.514;2023-04-02T06:44:59;95229.09;;;6.86;70.43
20860;BME280;10590;48.154;11.514;2023-04-02T06:50:24;95243.63;;;7.02;70.19
20860;BME280;10590;48.154;11.514;2023-04-02T06:55:50;95234.50;;;7.17;69.59
20860;BME280;10590;48.154;11.514;2023-04-02T07:01:17;95257.41;;;7.13;69.71
20860;BME280;10590;48.154;11.514;2023-04-02T07:06:39;95271.09;;;7.06;70.06
20860;BME280;10590;48.154;11.514;2023-04-02T07:12:01;95268.28;;;7.02;70.26
20860;BME280;10590;48.154;11.514;2023-04-02T07:17:24;95275.25;;;7.43;69.08
20860;BME280;10590;48.154;11.514;2023-04-02T07:22:46;95276.78;;;7.66;68.49
20860;BME280;10590;48.154;11.514;2023-04-02T07:28:07;95281.97;;;7.72;67.98
20860;BME280;10590;48.154;11.514;2023-04-02T07:33:30;95282.81;;;7.81;68.08
20860;BME280;10590;48.154;11.514;2023-04-02T07:38:52;95289.81;;;7.77;68.23
20860;BME280;10590;48.154;11.514;2023-04-02T07:44:14;95292.72;;;7.89;67.63
20860;BME280;10590;48.154;11.514;2023-04-02T07:49:37;95312.78;;;8.04;67.89
20860;BME280;10590;48.154;11.514;2023-04-02T07:54:58;95311.34;;;7.97;67.87
20860;BME280;10590;48.154;11.514;2023-04-02T08:00:22;95317.38;;;8.20;67.88
20860;BME280;10590;48.154;11.514;2023-04-02T08:05:50;95327.22;;;8.51;66.29
20860;BME280;10590;48.154;11.514;2023-04-02T08:11:12;95325.44;;;8.38;66.66
20860;BME280;10590;48.154;11.514;2023-04-02T08:16:45;95333.78;;;8.53;66.36
20860;BME280;10590;48.154;11.514;2023-04-02T08:22:08;95330.66;;;8.51;66.00
20860;BME280;10590;48.154;11.514;2023-04-02T08:27:30;95343.75;;;8.39;66.93
20860;BME280;10590;48.154;11.514;2023-04-02T08:32:51;95348.66;;;8.63;66.02
20860;BME280;10590;48.154;11.514;2023-04-02T08:38:15;95347.53;;;9.04;65.10
20860;BME280;10590;48.154;11.514;2023-04-02T08:43:54;95357.38;;;8.94;65.12
20860;BME280;10590;48.154;11.514;2023-04-02T08:49:25;95356.47;;;9.42;63.93
20860;BME280;10590;48.154;11.514;2023-04-02T08:54:50;95347.34;;;9.86;61.76
20860;BME280;10590;48.154;11.514;2023-04-02T09:00:24;95364.25;;;9.99;61.87
20860;BME280;10590;48.154;11.514;2023-04-02T09:05:49;95367.34;;;10.27;60.80
20860;BME280;10590;48.154;11.514;2023-04-02T09:11:18;95364.56;;;10.62;58.97
20860;BME280;10590;48.154;11.514;2023-04-02T09:16:45;95383.09;;;10.58;59.10
20860;BME280;10590;48.154;11.514;2023-04-02T09:22:10;95381.28;;;10.33;60.00
20860;BME280;10590;48.154;11.514;2023-04-02T09:27:39;95377.81;;;11.08;57.93
20860;BME280;10590;48.154;11.514;2023-04-02T09:33:02;95391.72;;;11.23;56.95
20860;BME280;10590;48.154;11.514;2023-04-02T09:38:27;95387.75;;;12.94;52.84
20860;BME280;10590;48.154;11.514;2023-04-02T09:44:10;95395.66;;;13.91;49.94
20860;BME280;10590;48.154;11.514;2023-04-02T09:49:34;95402.41;;;13.21;51.73
20860;BME280;10590;48.154;11.514;2023-04-02T09:55:17;95402.38;;;11.73;56.00
20860;BME280;10590;48.154;11.514;2023-04-02T10:00:49;95408.81;;;11.30;57.63
20860;BME280;10590;48.154;11.514;2023-04-02T10:06:14;95419.00;;;10.69;59.50
20860;BME280;10590;48.154;11.514;2023-04-02T10:11:36;95417.25;;;10.73;59.62
20860;BME280;10590;48.154;11.514;2023-04-02T10:17:06;95416.47;;;10.00;61.90
20860;BME280;10590;48.154;11.514;2023-04-02T10:22:31;95421.16;;;10.12;62.13
20860;BME280;10590;48.154;11.514;2023-04-02T10:27:56;95418.56;;;10.97;57.83
20860;BME280;10590;48.154;11.514;2023-04-02T10:33:26;95410.88;;;13.35;51.93
20860;BME280;10590;48.154;11.514;2023-04-02T10:38:54;95406.81;;;14.21;49.69
20860;BME280;10590;48.154;11.514;2023-04-02T10:44:27;95411.59;;;12.74;52.97
20860;BME280;10590;48.154;11.514;2023-04-02T10:50:03;95422.50;;;12.12;54.16
20860;BME280;10590;48.154;11.514;2023-04-02T10:55:29;95428.03;;;13.46;52.09
20860;BME280;10590;48.154;11.514;2023-04-02T11:00:55;95434.13;;;11.54;55.10
20860;BME280;10590;48.154;11.514;2023-04-02T11:06:23;95423.06;;;10.75;56.67
20860;BME280;10590;48.154;11.514;2023-04-02T11:11:47;95443.81;;;10.70;57.67
20860;BME280;10590;48.154;11.514;2023-04-02T11:17:12;95443.56;;;10.45;58.85
20860;BME280;10590;48.154;11.514;2023-04-02T11:22:38;95443.09;;;10.52;59.62
20860;BME280;10590;48.154;11.514;2023-04-02T11:28:13;95457.94;;;10.70;60.56
20860;BME280;10590;48.154;11.514;2023-04-02T11:33:39;95452.72;;;11.92;56.57
20860;BME280;10590;48.154;11.514;2023-04-02T11:39:03;95457.78;;;11.64;60.77
20860;BME280;10590;48.154;11.514;2023-04-02T11:44:25;95475.91;;;10.91;63.89
20860;BME280;10590;48.154;11.514;2023-04-02T11:50:19;95470.94;;;11.69;60.14
20860;BME280;10590;48.154;11.514;2023-04-02T11:56:08;95457.84;;;15.59;50.82
20860;BME280;10590;48.154;11.514;2023-04-02T12:02:05;95466.41;;;13.75;52.26
20860;BME280;10590;48.154;11.514;2023-04-02T12:07:51;95467.75;;;12.38;54.83
20860;BME280;10590;48.154;11.514;2023-04-02T12:13:47;95475.41;;;13.30;51.50
20860;BME280;10590;48.154;11.514;2023-04-02T12:19:12;95475.84;;;13.32;51.52
20860;BME280;10590;48.154;11.514;2023-04-02T12:24:36;95470.66;;;13.88;49.24
20860;BME280;10590;48.154;11.514;2023-04-02T12:30:13;95469.81;;;12.53;52.38
20860;BME280;10590;48.154;11.514;2023-04-02T12:35:40;95485.53;;;11.80;56.19
20860;BME280;10590;48.154;11.514;2023-04-02T12:41:17;95491.00;;;12.04;55.29
20860;BME280;10590;48.154;11.514;2023-04-02T12:46:42;95490.94;;;12.79;58.46
20860;BME280;10590;48.154;11.514;2023-04-02T12:52:06;95502.56;;;11.67;61.65
20860;BME280;10590;48.154;11.514;2023-04-02T12:57:36;95509.34;;;10.97;67.69
20860;BME280;10590;48.154;11.514;2023-04-02T13:03:15;95515.25;;;10.38;71.79
20860;BME280;10590;48.154;11.514;2023-04-02T13:08:40;95519.69;;;10.43;73.00
20860;BME280;10590;48.154;11.514;2023-04-02T13:14:04;95527.22;;;10.41;73.56
20860;BME280;10590;48.154;11.514;2023-04-02T13:19:30;95521.22;;;10.27;74.28
20860;BME280;10590;48.154;11.514;2023-04-02T13:24:54;95529.06;;;10.32;74.26
20860;BME280;10590;48.154;11.514;2023-04-02T13:30:22;95530.00;;;10.36;74.04
20860;BME280;10590;48.154;11.514;2023-04-02T13:35:45;95532.84;;;10.31;75.35
20860;BME280;10590;48.154;11.514;2023-04-02T13:41:17;95522.66;;;10.41;74.65
20860;BME280;10590;48.154;11.514;2023-04-02T13:46:40;95529.22;;;10.27;74.33
20860;BME280;10590;48.154;11.514;2023-04-02T13:52:03;95516.75;;;10.82;72.22
20860;BME280;10590;48.154;11.514;2023-04-02T13:57:25;95534.34;;;10.83;72.77
20860;BME280;10590;48.154;11.514;2023-04-02T14:02:51;95540.97;;;9.91;74.83
20860;BME280;10590;48.154;11.514;2023-04-02T14:08:21;95557.38;;;9.19;77.48
20860;BME280;10590;48.154;11.514;2023-04-02T14:14:00;95558.19;;;8.88;78.75
20860;BME280;10590;48.154;11.514;2023-04-02T14:19:34;95563.50;;;8.88;79.65
20860;BME280;10590;48.154;11.514;2023-04-02T14:25:10;95558.81;;;8.94;79.98
20860;BME280;10590;48.154;11.514;2023-04-02T14:30:44;95571.56;;;9.06;79.11
20860;BME280;10590;48.154;11.514;2023-04-02T14:36:14;95584.00;;;8.88;78.27
20860;BME280;10590;48.154;11.514;2023-04-02T14:41:42;95583.19;;;8.65;77.41
20860;BME280;10590;48.154;11.514;2023-04-02T14:47:13;95580.97;;;8.58;78.19
20860;BME280;10590;48.154;11.514;2023-04-02T14:52:38;95588.28;;;8.53;78.81
20860;BME280;10590;48.154;11.514;2023-04-02T14:58:09;95593.19;;;8.59;78.27
20860;BME280;10590;48.154;11.514;2023-04-02T15:03:40;95603.31;;;8.71;77.58
20860;BME280;10590;48.154;11.514;2023-04-02T15:09:06;95608.34;;;9.04;77.50
20860;BME280;10590;48.154;11.514;2023-04-02T15:14:36;95620.13;;;9.42;77.18
20860;BME280;10590;48.154;11.514;2023-04-02T15:20:10;95623.00;;;9.23;76.50
20860;BME280;10590;48.154;11.514;2023-04-02T15:25:36;95618.34;;;8.76;79.69
20860;BME280;10590;48.154;11.514;2023-04-02T15:31:05;95622.00;;;9.11;77.68
20860;BME280;10590;48.154;11.514;2023-04-02T15:36:40;95613.75;;;8.90;78.98
20860;BME280;10590;48.154;11.514;2023-04-02T15:42:20;95632.66;;;8.66;79.74
20860;BME280;10590;48.154;11.514;2023-04-02T15:53:33;95641.16;;;8.18;82.15
20860;BME280;10590;48.154;11.514;2023-04-02T15:59:16;95655.75;;;7.93;81.80
20860;BME280;10590;48.154;11.514;2023-04-02T16:04:50;95661.78;;;7.85;81.30
20860;BME280;10590;48.154;11.514;2023-04-02T16:10:21;95675.25;;;7.89;81.66
20860;BME280;10590;48.154;11.514;2023-04-02T16:15:49;95689.22;;;7.81;82.86
20860;BME280;10590;48.154;11.514;2023-04-02T16:21:19;95692.84;;;7.98;82.21
20860;BME280;10590;48.154;11.514;2023-04-02T16:26:48;95687.44;;;7.90;82.56
20860;BME280;10590;48.154;11.514;2023-04-02T16:32:19;95700.88;;;7.66;83.60
20860;BME280;10590;48.154;11.514;2023-04-02T16:37:50;95720.00;;;7.22;82.92
20860;BME280;10590;48.154;11.514;2023-04-02T16:43:21;95700.88;;;7.06;82.82
20860;BME280;10590;48.154;11.514;2023-04-02T16:48:48;95732.13;;;7.09;82.58
20860;BME280;10590;48.154;11.514;2023-04-02T16:54:18;95741.22;;;7.22;82.34
20860;BME280;10590;48.154;11.514;2023-04-02T16:59:49;95746.34;;;6.99;82.22
20860;BME280;10590;48.154;11.514;2023-04-02T17:05:27;95755.88;;;7.00;82.21
20860;BME280;10590;48.154;11.514;2023-04-02T17:10:55;95767.78;;;6.84;81.90
20860;BME280;10590;48.154;11.514;2023-04-02T17:16:19;95785.41;;;6.75;83.03
20860;BME280;10590;48.154;11.514;2023-04-02T17:21:44;95786.16;;;6.38;82.94
20860;BME280;10590;48.154;11.514;2023-04-02T17:27:15;95800.00;;;6.54;80.87
20860;BME280;10590;48.154;11.514;2023-04-02T17:32:38;95803.75;;;6.29;81.28
20860;BME280;10590;48.154;11.514;2023-04-02T17:38:06;95820.91;;;6.13;81.20
20860;BME280;10590;48.154;11.514;2023-04-02T17:43:35;95826.50;;;6.06;81.58
20860;BME280;10590;48.154;11.514;2023-04-02T17:49:10;95834.97;;;6.08;80.84
20860;BME280;10590;48.154;11.514;2023-04-02T17:54:40;95841.88;;;6.04;80.82
20860;BME280;10590;48.154;11.514;2023-04-02T18:00:18;95855.28;;;5.84;79.84
20860;BME280;10590;48.154;11.514;2023-04-02T18:05:44;95871.34;;;5.63;80.51
20860;BME280;10590;48.154;11.514;2023-04-02T18:11:13;95890.66;;;5.64;80.52
20860;BME280;10590;48.154;11.514;2023-04-02T18:16:47;95890.03;;;5.43;78.17
20860;BME280;10590;48.154;11.514;2023-04-02T18:22:15;95903.78;;;5.45;77.39
20860;BME280;10590;48.154;11.514;2023-04-02T18:27:58;95912.81;;;5.39;78.47
20860;BME280;10590;48.154;11.514;2023-04-02T18:39:30;95935.13;;;5.18;78.11
20860;BME280;10590;48.154;11.514;2023-04-02T18:45:02;95937.69;;;5.38;78.16
20860;BME280;10590;48.154;11.514;2023-04-02T18:50:30;95954.75;;;5.11;78.06
20860;BME280;10590;48.154;11.514;2023-04-02T18:55:55;95963.00;;;5.00;78.22
20860;BME280;10590;48.154;11.514;2023-04-02T19:01:21;95968.28;;;5.00;77.34
20860;BME280;10590;48.154;11.514;2023-04-02T19:06:47;95973.28;;;5.06;76.53
20860;BME280;10590;48.154;11.514;2023-04-02T19:12:14;95973.34;;;4.86;75.69
20860;BME280;10590;48.154;11.514;2023-04-02T19:17:37;95996.66;;;4.79;74.46
20860;BME280;10590;48.154;11.514;2023-04-02T19:23:12;96004.59;;;4.74;75.47
20860;BME280;10590;48.154;11.514;2023-04-02T19:28:40;96009.91;;;4.54;72.35
20860;BME280;10590;48.154;11.514;2023-04-02T19:34:10;96025.25;;;4.52;72.74
20860;BME280;10590;48.154;11.514;2023-04-02T19:39:59;96029.47;;;4.47;73.51
20860;BME280;10590;48.154;11.514;2023-04-02T19:45:28;96045.34;;;4.37;73.60
20860;BME280;10590;48.154;11.514;2023-04-02T19:50:52;96047.94;;;4.02;74.42
20860;BME280;10590;48.154;11.514;2023-04-02T19:56:15;96062.22;;;4.21;74.47
20860;BME280;10590;48.154;11.514;2023-04-02T20:01:37;96057.72;;;4.01;74.38
20860;BME280;10590;48.154;11.514;2023-04-02T20:06:59;96069.06;;;3.97;73.44
20860;BME280;10590;48.154;11.514;2023-04-02T20:12:25;96062.69;;;3.82;73.75
20860;BME280;10590;48.154;11.514;2023-04-02T20:17:46;96075.50;;;3.43;72.29
20860;BME280;10590;48.154;11.514;2023-04-02T20:23:08;96086.97;;;3.79;73.87
20860;BME280;10590;48.154;11.514;2023-04-02T20:28:31;96091.72;;;3.82;74.18
20860;BME280;10590;48.154;11.514;2023-04-02T20:33:53;96093.25;;;3.63;72.89
20860;BME280;10590;48.154;11.514;2023-04-02T20:39:15;96112.75;;;3.52;73.66
20860;BME280;10590;48.154;11.514;2023-04-02T20:44:40;96115.94;;;3.59;72.09
20860;BME280;10590;48.154;11.514;2023-04-02T20:50:01;96114.00;;;2.92;72.94
20860;BME280;10590;48.154;11.514;2023-04-02T20:55:23;96121.03;;;3.24;73.25
20860;BME280;10590;48.154;11.514;2023-04-02T21:00:46;96145.78;;;3.17;72.05
20860;BME280;10590;48.154;11.514;2023-04-02T21:06:11;96151.53;;;3.09;72.05
20860;BME280;10590;48.154;11.514;2023-04-02T21:11:34;96154.72;;;3.11;72.50
20860;BME280;10590;48.154;11.514;2023-04-02T21:16:57;96160.81;;;3.17;73.56
20860;BME280;10590;48.154;11.514;2023-04-02T21:22:19;96171.31;;;3.12;73.31
20860;BME280;10590;48.154;11.514;2023-04-02T21:27:40;96170.47;;;3.01;73.56
20860;BME280;10590;48.154;11.514;2023-04-02T21:33:03;96168.81;;;2.90;71.90
20860;BME280;10590;48.154;11.514;2023-04-02T21:38:25;96185.09;;;2.82;71.55
20860;BME280;10590;48.154;11.514;2023-04-02T21:43:47;96191.88;;;3.10;72.10
20860;BME280;10590;48.154;11.514;2023-04-02T21:49:11;96200.41;;;2.85;72.83
20860;BME280;10590;48.154;11.514;2023-04-02T21:54:33;96195.88;;;2.80;74.69
20860;BME280;10590;48.154;11.514;2023-04-02T21:59:55;96198.34;;;2.60;76.18
20860;BME280;10590;48.154;11.514;2023-04-02T22:05:18;96213.81;;;2.56;75.93
20860;BME280;10590;48.154;11.514;2023-04-02T22:10:40;96205.78;;;2.41;78.77
20860;BME280;10590;48.154;11.514;2023-04-02T22:16:03;96206.56;;;2.42;79.88
20860;BME280;10590;48.154;11.514;2023-04-02T22:21:27;96222.72;;;2.23;80.77
20860;BME280;10590;48.154;11.514;2023-04-02T22:26:49;96219.53;;;2.21;82.16
20860;BME280;10590;48.154;11.514;2023-04-02T22:32:11;96232.94;;;2.20;80.98
20860;BME280;10590;48.154;11.514;2023-04-02T22:37:34;96238.75;;;2.22;81.34
20860;BME280;10590;48.154;11.514;2023-04-02T22:42:55;96244.34;;;2.04;81.56
20860;BME280;10590;48.154;11.514;2023-04-02T22:48:17;96237.81;;;1.84;84.06
20860;BME280;10590;48.154;11.514;2023-04-02T22:53:40;96236.44;;;2.04;82.82
20860;BME280;10590;48.154;11.514;2023-04-02T22:59:03;96236.50;;;2.09;82.53
20860;BME280;10590;48.154;11.514;2023-04-02T23:04:24;96233.88;;;2.09;82.56
20860;BME280;10590;48.154;11.514;2023-04-02T23:09:47;96239.13;;;2.09;82.56
20860;BME280;10590;48.154;11.514;2023-04-02T23:15:10;96247.53;;;2.06;83.07
20860;BME280;10590;48.154;11.514;2023-04-02T23:20:31;96245.06;;;2.21;82.46
20860;BME280;10590;48.154;11.514;2023-04-02T23:26:03;96245.00;;;2.16;83.77
20860;BME280;10590;48.154;11.514;2023-04-02T23:31:25;96237.31;;;2.09;83.65
20860;BME280;10590;48.154;11.514;2023-04-02T23:36:47;96245.38;;;2.03;82.67
20860;BME280;10590;48.154;11.514;2023-04-02T23:42:10;96239.50;;;2.17;82.70
20860;BME280;10590;48.154;11.514;2023-04-02T23:47:32;96229.47;;;2.41;81.96
20860;BME280;10590;48.154;11.514;2023-04-02T23:52:53;96234.66;;;2.31;80.64
20860;BME280;10590;48.154;11.514;2023-04-02T23:58:16;96216.66;;;2.23;81.68
